createdAt,value
2022-10-24T00:00:55.648Z,24.60
2022-10-24T00:06:14.568Z,21.00
2022-10-24T00:11:24.125Z,20.70
2022-10-24T00:16:30.550Z,19.35
2022-10-24T00:21:38.224Z,20.15
2022-10-24T00:26:44.789Z,22.50
2022-10-24T00:31:50.822Z,22.40
2022-10-24T00:36:58.178Z,24.15
2022-10-24T00:42:04.493Z,25.95
2022-10-24T00:47:15.743Z,21.40
2022-10-24T00:52:28.237Z,19.20
2022-10-24T00:57:39.609Z,18.02
2022-10-24T01:02:46.608Z,33.65
2022-10-24T01:08:03.350Z,29.00
2022-10-24T01:13:24.012Z,27.17
2022-10-24T01:18:36.775Z,25.20
2022-10-24T01:24:20.803Z,31.52
2022-10-24T01:29:55.331Z,23.85
2022-10-24T01:35:09.241Z,26.45
2022-10-24T01:40:21.957Z,19.70
2022-10-24T01:45:35.105Z,19.70
2022-10-24T01:50:43.910Z,19.67
2022-10-24T01:55:51.654Z,24.33
2022-10-24T02:01:09.224Z,14.90
2022-10-24T02:06:20.250Z,28.75
2022-10-24T02:11:26.296Z,14.43
2022-10-24T02:16:35.823Z,13.45
2022-10-24T02:21:51.293Z,25.05
2022-10-24T02:27:02.529Z,13.82
2022-10-24T02:32:14.794Z,15.55
2022-10-24T02:37:22.156Z,13.93
2022-10-24T02:47:39.601Z,19.90
2022-10-24T02:52:46.316Z,15.75
2022-10-24T02:57:52.733Z,18.95
2022-10-24T03:03:00.234Z,14.85
2022-10-24T03:08:07.228Z,14.27
2022-10-24T03:13:13.128Z,15.13
2022-10-24T03:18:20.728Z,15.30
2022-10-24T03:23:28.951Z,15.57
2022-10-24T03:28:36.994Z,15.05
2022-10-24T03:33:44.902Z,15.18
2022-10-24T03:38:50.745Z,15.50
2022-10-24T03:43:56.736Z,14.25
2022-10-24T03:49:04.302Z,16.27
2022-10-24T03:54:12.071Z,16.45
2022-10-24T03:59:18.673Z,14.70
2022-10-24T04:04:25.994Z,15.65
2022-10-24T04:09:31.951Z,17.00
2022-10-24T04:14:38.205Z,17.80
2022-10-24T04:19:46.051Z,17.85
2022-10-24T04:24:52.272Z,21.20
2022-10-24T04:29:59.009Z,17.50
2022-10-24T04:35:08.458Z,25.48
2022-10-24T04:40:14.605Z,17.95
2022-10-24T04:45:20.528Z,16.35
2022-10-24T04:50:27.998Z,16.90
2022-10-24T04:55:34.152Z,18.08
2022-10-24T05:00:43.097Z,18.95
2022-10-24T05:05:50.833Z,17.45
2022-10-24T05:10:56.863Z,17.40
2022-10-24T05:16:03.238Z,16.67
2022-10-24T05:21:11.977Z,17.40
2022-10-24T05:26:17.928Z,15.63
2022-10-24T05:31:24.290Z,18.20
2022-10-24T05:36:31.758Z,16.30
2022-10-24T05:41:37.772Z,16.77
2022-10-24T05:46:43.712Z,19.40
2022-10-24T05:51:51.140Z,15.65
2022-10-24T05:56:57.184Z,15.45
2022-10-24T06:02:03.407Z,18.17
2022-10-24T06:07:11.006Z,22.90
2022-10-24T06:12:17.037Z,17.60
2022-10-24T06:17:23.171Z,19.70
2022-10-24T06:22:31.044Z,18.23
2022-10-24T06:27:37.161Z,18.15
2022-10-24T06:32:44.615Z,13.90
2022-10-24T06:37:52.563Z,16.30
2022-10-24T06:42:58.976Z,16.95
2022-10-24T06:48:08.926Z,17.13
2022-10-24T06:53:16.595Z,15.80
2022-10-24T06:58:22.439Z,16.02
2022-10-24T07:03:28.609Z,21.42
2022-10-24T07:08:36.014Z,14.90
2022-10-24T07:13:42.350Z,19.10
2022-10-24T07:18:49.224Z,22.50
2022-10-24T07:23:57.954Z,36.70
2022-10-24T07:29:04.906Z,24.42
2022-10-24T07:34:11.919Z,20.95
2022-10-24T07:39:19.472Z,17.23
2022-10-24T07:44:25.469Z,18.48
2022-10-24T07:49:32.993Z,27.13
2022-10-24T07:54:41.263Z,20.52
2022-10-24T07:59:47.131Z,22.45
2022-10-24T08:04:53.011Z,19.48
2022-10-24T08:10:00.431Z,19.35
2022-10-24T08:15:07.397Z,22.33
2022-10-24T08:20:14.384Z,24.27
2022-10-24T08:25:22.566Z,16.70
2022-10-24T08:30:28.502Z,23.67
2022-10-24T08:35:34.437Z,18.33
2022-10-24T08:40:42.679Z,20.52
2022-10-24T08:46:00.122Z,17.67
2022-10-24T08:51:26.141Z,20.45
2022-10-24T08:56:36.412Z,19.27
2022-10-24T09:01:50.065Z,19.83
2022-10-24T09:07:00.119Z,17.80
2022-10-24T09:12:14.337Z,14.10
2022-10-24T09:17:24.016Z,17.27
2022-10-24T09:22:33.520Z,14.93
2022-10-24T09:27:43.810Z,13.95
2022-10-24T09:32:50.630Z,15.13
2022-10-24T09:37:58.612Z,16.35
2022-10-24T09:43:17.447Z,13.73
2022-10-24T09:48:30.311Z,17.60
2022-10-24T09:53:41.299Z,15.50
2022-10-24T09:58:48.959Z,15.57
2022-10-24T10:04:08.916Z,17.73
2022-10-24T10:09:26.051Z,13.50
2022-10-24T10:14:33.672Z,12.30
2022-10-24T10:19:40.566Z,13.20
2022-10-24T10:24:46.939Z,17.02
2022-10-24T10:30:21.372Z,12.02
2022-10-24T10:35:33.490Z,14.32
2022-10-24T10:40:45.796Z,12.30
2022-10-24T10:46:12.392Z,15.00
2022-10-24T10:51:30.162Z,10.27
2022-10-24T10:56:47.314Z,11.25
2022-10-24T11:02:02.728Z,13.48
2022-10-24T11:07:14.099Z,15.60
2022-10-24T11:12:25.197Z,15.48
2022-10-24T11:17:42.681Z,13.25
2022-10-24T11:22:52.976Z,10.88
2022-10-24T11:28:07.757Z,17.13
2022-10-24T11:33:22.326Z,13.13
2022-10-24T11:38:29.494Z,11.90
2022-10-24T11:43:41.635Z,17.88
2022-10-24T11:48:54.882Z,13.30
2022-10-24T11:54:05.418Z,9.32
2022-10-24T11:59:19.059Z,9.13
2022-10-24T12:05:27.636Z,10.38
2022-10-24T12:10:55.617Z,12.73
2022-10-24T12:16:11.069Z,11.13
2022-10-24T12:21:26.031Z,9.57
2022-10-24T12:26:36.485Z,10.38
2022-10-24T12:31:43.425Z,8.13
2022-10-24T12:37:32.067Z,9.82
2022-10-24T12:43:17.138Z,10.13
2022-10-24T12:48:37.308Z,10.48
2022-10-24T12:54:18.857Z,11.70
2022-10-24T12:59:30.358Z,6.30
2022-10-24T13:05:06.307Z,8.65
2022-10-24T13:10:38.602Z,13.68
2022-10-24T13:15:54.934Z,14.80
2022-10-24T13:21:24.925Z,8.88
2022-10-24T13:26:53.976Z,9.57
2022-10-24T13:32:32.301Z,12.50
2022-10-24T13:37:44.079Z,11.13
2022-10-24T13:42:56.150Z,9.05
2022-10-24T13:48:08.729Z,11.20
2022-10-24T13:53:29.591Z,9.82
2022-10-24T13:58:44.696Z,9.32
2022-10-24T14:03:53.711Z,9.98
2022-10-24T14:09:07.212Z,9.68
2022-10-24T14:14:32.281Z,9.13
2022-10-24T14:19:45.854Z,11.82
2022-10-24T14:24:53.006Z,6.35
2022-10-24T14:30:03.544Z,7.65
2022-10-24T14:35:15.037Z,10.07
2022-10-24T14:40:22.259Z,7.22
2022-10-24T14:45:32.456Z,8.80
2022-10-24T14:50:42.544Z,7.20
2022-10-24T14:55:53.849Z,8.13
2022-10-24T15:01:03.204Z,6.22
2022-10-24T15:06:12.763Z,12.68
2022-10-24T15:11:25.305Z,14.38
2022-10-24T15:16:37.900Z,15.40
2022-10-24T15:21:48.314Z,12.73
2022-10-24T15:26:54.427Z,11.85
2022-10-24T15:32:01.984Z,14.73
2022-10-24T15:37:09.166Z,7.47
2022-10-24T15:42:17.639Z,8.05
2022-10-24T15:47:27.569Z,11.80
2022-10-24T15:52:33.979Z,12.00
2022-10-24T15:57:40.351Z,11.38
2022-10-24T16:02:49.508Z,9.07
2022-10-24T16:07:55.742Z,11.90
2022-10-24T16:13:01.637Z,12.27
2022-10-24T16:18:10.407Z,8.80
2022-10-24T16:28:26.229Z,9.70
2022-10-24T16:33:34.766Z,25.10
2022-10-24T16:38:41.071Z,42.53
2022-10-24T16:43:50.029Z,68.28
2022-10-24T16:48:58.487Z,73.07
2022-10-24T16:54:05.932Z,70.30
2022-10-24T16:59:15.344Z,74.32
2022-10-24T17:04:24.798Z,74.45
2022-10-24T17:14:39.294Z,48.92
2022-10-24T17:19:49.743Z,47.47
2022-10-24T17:24:58.500Z,53.42
2022-10-24T17:30:07.185Z,46.35
2022-10-24T17:40:30.289Z,34.08
2022-10-24T17:45:37.523Z,32.58
2022-10-24T17:50:45.986Z,41.13
2022-10-24T17:55:56.165Z,31.75
2022-10-24T18:01:03.026Z,29.67
2022-10-24T18:06:13.248Z,39.15
2022-10-24T18:11:20.428Z,41.15
2022-10-24T18:16:28.647Z,39.60
2022-10-24T18:21:40.425Z,32.25
2022-10-24T18:26:48.508Z,38.03
2022-10-24T18:31:55.539Z,30.75
2022-10-24T18:37:05.163Z,30.10
2022-10-24T18:42:25.799Z,26.50
2022-10-24T18:47:34.486Z,23.55
2022-10-24T18:52:50.822Z,28.00
2022-10-24T18:57:59.098Z,26.77
2022-10-24T19:03:22.401Z,17.70
2022-10-24T19:08:31.707Z,19.45
2022-10-24T19:13:38.259Z,20.63
2022-10-24T19:18:53.165Z,26.00
2022-10-24T19:24:03.282Z,24.33
2022-10-24T19:29:10.783Z,22.95
2022-10-24T19:34:17.909Z,23.65
2022-10-24T19:39:33.899Z,23.27
2022-10-24T19:44:43.533Z,28.95
2022-10-24T19:49:51.031Z,23.23
2022-10-24T19:54:59.704Z,23.00
2022-10-24T20:00:07.350Z,18.20
2022-10-24T20:05:18.896Z,16.10
2022-10-24T20:10:37.028Z,20.48
2022-10-24T20:15:43.823Z,18.63
2022-10-24T20:20:51.607Z,22.92
2022-10-24T20:26:03.715Z,23.95
2022-10-24T20:31:19.103Z,18.58
2022-10-24T20:36:25.873Z,16.08
2022-10-24T20:41:34.005Z,19.42
2022-10-24T20:46:40.312Z,15.65
2022-10-24T20:51:46.305Z,19.23
2022-10-24T20:56:54.140Z,20.13
2022-10-24T21:02:00.231Z,17.55
2022-10-24T21:07:07.020Z,20.48
2022-10-24T21:12:14.755Z,17.85
2022-10-24T21:17:21.479Z,22.23
2022-10-24T21:22:29.260Z,16.35
2022-10-24T21:27:37.663Z,18.00
2022-10-24T21:32:43.687Z,21.97
2022-10-24T21:37:49.835Z,17.48
2022-10-24T21:42:57.356Z,19.45
2022-10-24T21:48:03.526Z,19.52
2022-10-24T21:53:09.485Z,17.30
2022-10-24T21:58:16.868Z,16.95
2022-10-24T22:03:22.881Z,17.55
2022-10-24T22:08:28.743Z,16.00
2022-10-24T22:13:36.917Z,16.67
2022-10-24T22:18:44.453Z,17.43
2022-10-24T22:23:50.573Z,14.70
2022-10-24T22:28:58.511Z,14.20
2022-10-24T22:34:07.164Z,16.35
2022-10-24T22:39:17.936Z,15.82
2022-10-24T22:44:27.616Z,18.90
2022-10-24T22:49:47.942Z,11.68
2022-10-24T22:54:54.622Z,11.82
2022-10-24T23:00:02.923Z,16.45
2022-10-24T23:05:28.353Z,13.93
2022-10-24T23:10:36.747Z,16.52
2022-10-24T23:15:44.726Z,12.50
2022-10-24T23:21:02.205Z,11.43
2022-10-24T23:26:30.291Z,11.55
2022-10-24T23:31:38.512Z,11.30
2022-10-24T23:36:46.323Z,13.00
2022-10-24T23:41:53.448Z,10.15
2022-10-24T23:47:06.832Z,14.90
2022-10-24T23:52:27.752Z,10.70
2022-10-24T23:57:35.754Z,7.93
